Time;durP1;ratioP1;P1;durP2;ratioP2;P2;SDS_P1;SDS_P2;PMS_P1;PMS_P2;Temp;Humidity;BMP_temperature;BMP_pressure;BME280_temperature;BME280_humidity;BME280_pressure;Samples;Min_cycle;Max_cycle;Signal;HPM_P1;HPM_P2
2022/11/11 00:01:01;;;;;;;1.10;0.97;;;6.20;99.90;;;;;;5031573;28;20452;-52
2022/11/11 00:03:28;;;;;;;1.00;0.70;;;6.30;99.90;;;;;;5031248;28;20966;-52
2022/11/11 00:05:55;;;;;;;1.20;0.53;;;6.30;99.90;;;;;;5031554;28;20536;-52
2022/11/11 00:08:22;;;;;;;1.00;0.50;;;6.30;99.90;;;;;;5031215;28;20469;-53
2022/11/11 00:10:49;;;;;;;1.20;0.63;;;6.30;99.90;;;;;;5031543;28;20538;-53
2022/11/11 00:13:17;;;;;;;1.33;0.80;;;6.30;99.90;;;;;;5031770;28;21122;-52
2022/11/11 00:15:44;;;;;;;1.03;0.57;;;6.30;99.90;;;;;;5031140;28;20565;-52
2022/11/11 00:26:30;;;;;;;1.10;0.60;;;6.20;99.90;;;;;;5031277;28;20454;-52
2022/11/11 00:28:58;;;;;;;0.90;0.50;;;6.10;99.90;;;;;;5031544;28;20934;-53
2022/11/11 00:31:25;;;;;;;0.90;0.47;;;6.10;99.90;;;;;;5031277;28;21051;-53
2022/11/11 00:33:53;;;;;;;1.73;0.60;;;6.10;99.90;;;;;;5031002;28;20873;-52
2022/11/11 00:36:19;;;;;;;1.00;0.60;;;6.00;99.90;;;;;;5031130;28;20453;-52
2022/11/11 00:38:46;;;;;;;1.67;0.63;;;5.90;99.90;;;;;;5031163;28;20474;-53
2022/11/11 00:41:14;;;;;;;1.50;0.60;;;6.10;99.90;;;;;;5031396;28;20442;-52
2022/11/11 00:43:41;;;;;;;1.20;0.57;;;6.10;99.90;;;;;;5031177;28;20526;-52
2022/11/11 00:51:39;;;;;;;1.50;0.60;;;6.10;99.90;;;;;;5034167;28;20425;-52
2022/11/11 00:54:06;;;;;;;1.07;0.70;;;5.50;99.90;;;;;;5035149;28;20526;-52
2022/11/11 00:56:35;;;;;;;1.00;0.50;;;5.80;99.90;;;;;;5034899;28;20983;-52
2022/11/11 00:59:02;;;;;;;1.30;0.40;;;5.90;99.90;;;;;;5035091;28;20544;-52
2022/11/11 01:01:30;;;;;;;1.43;0.70;;;5.80;99.90;;;;;;5035076;28;20442;-52
2022/11/11 01:03:58;;;;;;;2.17;0.70;;;5.70;99.90;;;;;;5034646;28;20443;-52
2022/11/11 01:06:24;;;;;;;1.37;0.90;;;5.90;99.90;;;;;;5034738;28;20465;-52
2022/11/11 01:08:51;;;;;;;1.43;0.90;;;6.00;99.90;;;;;;5035071;28;20807;-52
2022/11/11 01:11:20;;;;;;;1.00;0.43;;;6.10;99.90;;;;;;5035109;28;20533;-53
2022/11/11 01:13:47;;;;;;;1.50;0.97;;;5.80;99.90;;;;;;5034448;28;20476;-52
2022/11/11 01:16:16;;;;;;;1.47;0.73;;;5.60;99.90;;;;;;5034675;28;20445;-52
2022/11/11 01:18:44;;;;;;;1.10;0.67;;;5.90;99.90;;;;;;5034616;28;20564;-52
2022/11/11 01:21:13;;;;;;;1.10;0.70;;;6.00;99.90;;;;;;5034788;28;20521;-52
2022/11/11 01:23:42;;;;;;;1.27;0.87;;;6.10;99.90;;;;;;5034238;28;20540;-52
2022/11/11 01:26:13;;;;;;;1.40;0.80;;;6.10;99.90;;;;;;5034363;28;20471;-52
2022/11/11 01:28:40;;;;;;;1.30;0.77;;;5.50;99.90;;;;;;5034463;28;20537;-52
2022/11/11 01:31:10;;;;;;;1.00;0.50;;;5.20;99.90;;;;;;5034534;28;20529;-54
2022/11/11 01:33:38;;;;;;;1.10;0.70;;;5.20;99.90;;;;;;5034396;28;20525;-52
2022/11/11 01:36:08;;;;;;;1.47;0.67;;;5.30;99.90;;;;;;5034342;28;20534;-52
2022/11/11 01:38:35;;;;;;;1.00;0.50;;;5.60;99.90;;;;;;5033985;28;20561;-53
2022/11/11 01:41:31;;;;;;;0.93;0.60;;;5.80;99.90;;;;;;5034290;28;21003;-52
2022/11/11 01:43:52;;;;;;;1.07;0.60;;;5.90;99.90;;;;;;5034004;28;20445;-53
2022/11/11 01:46:28;;;;;;;2.00;0.63;;;5.90;99.90;;;;;;5033474;28;20446;-52
2022/11/11 01:51:50;;;;;;;1.00;0.70;;;6.00;99.90;;;;;;5034129;28;21012;-53
2022/11/11 01:54:21;;;;;;;0.80;0.40;;;6.00;99.90;;;;;;5034059;28;20443;-52
2022/11/11 01:56:51;;;;;;;1.83;0.70;;;6.00;99.90;;;;;;5033905;28;20468;-53
2022/11/11 01:59:18;;;;;;;0.90;0.40;;;6.00;99.90;;;;;;5033684;28;20493;-52
2022/11/11 02:01:47;;;;;;;1.33;0.60;;;5.90;99.90;;;;;;5033006;28;21013;-52
2022/11/11 02:07:06;;;;;;;1.93;0.70;;;6.00;99.90;;;;;;5034019;28;20449;-53
2022/11/11 02:09:33;;;;;;;1.50;0.90;;;6.00;99.90;;;;;;5033505;28;20450;-52
2022/11/11 02:14:54;;;;;;;1.00;0.50;;;5.50;99.90;;;;;;5033726;28;20429;-52
2022/11/11 02:17:21;;;;;;;1.00;0.57;;;4.80;99.90;;;;;;5111035;22;20574;-47
2022/11/11 02:19:51;;;;;;;1.37;0.77;;;4.70;99.90;;;;;;5093773;28;20570;-48
2022/11/11 02:22:26;;;;;;;0.90;0.47;;;5.10;99.90;;;;;;5093551;28;21041;-48
2022/11/11 02:24:55;;;;;;;0.90;0.50;;;5.40;99.90;;;;;;5093275;28;20596;-47
2022/11/11 02:27:24;;;;;;;1.27;0.50;;;5.10;99.90;;;;;;5093614;28;20555;-48
2022/11/11 02:29:55;;;;;;;1.67;0.70;;;5.00;99.90;;;;;;5093630;28;20444;-47
2022/11/11 02:32:22;;;;;;;1.20;0.67;;;5.30;99.90;;;;;;5093606;28;20476;-48
2022/11/11 02:34:49;;;;;;;1.00;0.60;;;5.40;99.90;;;;;;5093250;28;20462;-48
2022/11/11 02:37:19;;;;;;;1.20;0.60;;;5.30;99.90;;;;;;5093352;28;20465;-47
2022/11/11 02:39:49;;;;;;;1.30;0.80;;;4.80;99.90;;;;;;5093510;28;20510;-47
2022/11/11 02:42:21;;;;;;;1.10;0.73;;;4.60;99.90;;;;;;5093898;28;20446;-47
2022/11/11 02:44:47;;;;;;;1.20;0.80;;;4.40;99.90;;;;;;5093227;28;20502;-47
2022/11/11 02:47:14;;;;;;;3.10;1.50;;;4.40;99.90;;;;;;5093121;28;20499;-48
2022/11/11 02:49:41;;;;;;;1.10;0.60;;;4.40;99.90;;;;;;5093033;28;20442;-47
2022/11/11 02:52:08;;;;;;;1.37;0.60;;;4.40;99.90;;;;;;5093440;28;20451;-47
2022/11/11 02:54:35;;;;;;;0.90;0.40;;;4.70;99.90;;;;;;5093103;28;20442;-47
2022/11/11 02:57:08;;;;;;;1.10;0.60;;;5.00;99.90;;;;;;5092757;28;20467;-50
2022/11/11 02:59:37;;;;;;;1.50;0.70;;;5.30;99.90;;;;;;5092654;28;20618;-48
2022/11/11 03:02:05;;;;;;;1.63;0.60;;;5.30;99.90;;;;;;5092817;28;20522;-50
2022/11/11 03:04:32;;;;;;;1.60;0.90;;;5.20;99.90;;;;;;5092707;28;20944;-47
2022/11/11 03:06:59;;;;;;;1.50;1.10;;;5.40;99.90;;;;;;5092774;28;21043;-48
2022/11/11 03:09:26;;;;;;;1.10;0.80;;;5.40;99.90;;;;;;5092517;28;20793;-47
2022/11/11 03:11:53;;;;;;;0.97;0.47;;;5.10;99.90;;;;;;5092777;28;20454;-47
2022/11/11 03:14:19;;;;;;;1.60;0.70;;;5.30;99.90;;;;;;5092249;28;20450;-47
2022/11/11 03:19:32;;;;;;;1.53;0.60;;;5.40;99.90;;;;;;5092545;28;20606;-47
2022/11/11 03:21:59;;;;;;;0.90;0.40;;;5.50;99.90;;;;;;5092585;28;20501;-47
2022/11/11 03:25:36;;;;;;;1.10;0.50;;;5.50;99.90;;;;;;5092553;28;20833;-48
2022/11/11 03:27:13;;;;;;;1.17;0.60;;;5.50;99.90;;;;;;5092212;28;20827;-47
2022/11/11 03:29:41;;;;;;;2.43;0.60;;;5.50;99.90;;;;;;5092431;28;20433;-50
2022/11/11 03:32:10;;;;;;;0.90;0.53;;;5.40;99.90;;;;;;5092431;28;20455;-49
2022/11/11 03:34:37;;;;;;;4.60;2.10;;;5.50;99.90;;;;;;5092595;28;20470;-47
2022/11/11 03:39:48;;;;;;;1.10;0.70;;;5.00;99.90;;;;;;5092286;28;20481;-50
2022/11/11 03:42:15;;;;;;;1.40;1.10;;;4.60;99.90;;;;;;5092455;28;20437;-47
2022/11/11 03:44:42;;;;;;;1.10;0.60;;;4.40;99.90;;;;;;5091718;28;20929;-48
2022/11/11 03:47:10;;;;;;;1.00;0.60;;;4.50;99.90;;;;;;5091720;28;20557;-50
2022/11/11 03:49:37;;;;;;;0.90;0.50;;;4.50;99.90;;;;;;5091795;28;20486;-48
2022/11/11 03:52:04;;;;;;;1.00;0.80;;;4.50;99.90;;;;;;5092255;28;20475;-47
2022/11/11 03:54:31;;;;;;;1.00;0.60;;;4.30;99.90;;;;;;5091850;28;20487;-47
2022/11/11 03:59:39;;;;;;;1.07;0.63;;;4.20;99.90;;;;;;5091674;28;20467;-47
2022/11/11 04:10:22;;;;;;;1.40;1.30;;;4.60;99.90;;;;;;5091932;28;20460;-47
2022/11/11 04:21:41;;;;;;;0.90;0.50;;;4.90;99.90;;;;;;5091475;28;20465;-47
2022/11/11 04:23:53;;;;;;;1.10;0.80;;;5.40;99.90;;;;;;5091168;28;20443;-48
2022/11/11 04:26:19;;;;;;;4.83;1.10;;;5.20;99.90;;;;;;5091141;28;20454;-47
2022/11/11 04:31:30;;;;;;;2.40;2.17;;;5.20;99.90;;;;;;5091919;28;20196;-50
2022/11/11 04:33:56;;;;;;;2.20;2.00;;;5.30;99.90;;;;;;5091290;28;20517;-48
2022/11/11 04:36:24;;;;;;;1.23;1.13;;;5.20;99.90;;;;;;5091379;28;20543;-47
2022/11/11 04:41:35;;;;;;;1.07;0.80;;;5.20;99.90;;;;;;5091365;28;20423;-48
2022/11/11 04:46:46;;;;;;;0.90;0.60;;;5.00;99.90;;;;;;5090990;28;20421;-47
2022/11/11 04:49:13;;;;;;;0.90;0.70;;;4.60;99.90;;;;;;5091345;28;20528;-48
2022/11/11 04:54:26;;;;;;;1.10;0.80;;;4.30;99.90;;;;;;5091042;28;20430;-47
2022/11/11 04:56:53;;;;;;;1.20;0.70;;;4.30;99.90;;;;;;5091335;28;20469;-47
2022/11/11 04:59:20;;;;;;;2.13;0.90;;;4.20;99.90;;;;;;5091337;28;20475;-49
2022/11/11 05:04:31;;;;;;;1.03;0.60;;;4.70;99.90;;;;;;5091317;28;20438;-48
2022/11/11 05:09:44;;;;;;;1.77;0.80;;;4.20;99.90;;;;;;5091156;28;20418;-48
2022/11/11 05:12:10;;;;;;;1.20;0.70;;;3.90;99.90;;;;;;5091248;28;20531;-48
2022/11/11 05:22:51;;;;;;;2.87;1.33;;;4.00;99.90;;;;;;5091225;28;20425;-47
2022/11/11 05:25:29;;;;;;;4.60;2.47;;;4.50;99.90;;;;;;5091123;28;20528;-47
2022/11/11 05:27:57;;;;;;;3.03;2.40;;;4.40;99.90;;;;;;5091064;28;20559;-47
2022/11/11 05:30:26;;;;;;;3.93;3.60;;;3.90;99.90;;;;;;5090708;28;20538;-49
2022/11/11 05:32:55;;;;;;;2.50;2.30;;;3.90;99.90;;;;;;5090874;28;20447;-44
2022/11/11 05:35:22;;;;;;;2.40;2.10;;;4.00;99.90;;;;;;5091059;28;20453;-47
2022/11/11 05:40:31;;;;;;;2.70;2.27;;;4.60;99.90;;;;;;5094146;28;20470;-47
2022/11/11 05:42:58;;;;;;;2.20;1.23;;;4.70;99.90;;;;;;5094088;28;21010;-47
2022/11/11 05:45:25;;;;;;;1.33;1.10;;;4.90;99.90;;;;;;5094021;28;20443;-49
2022/11/11 05:47:52;;;;;;;2.03;1.23;;;5.00;99.90;;;;;;5094430;28;20550;-47
2022/11/11 05:50:18;;;;;;;1.10;0.80;;;5.00;99.90;;;;;;5094492;28;20444;-47
2022/11/11 05:52:48;;;;;;;1.23;0.70;;;5.00;99.90;;;;;;5094485;28;20439;-48
2022/11/11 05:55:16;;;;;;;1.30;0.93;;;5.10;99.90;;;;;;5094346;28;20447;-47
2022/11/11 05:57:43;;;;;;;2.30;1.57;;;5.00;99.90;;;;;;5094103;28;21045;-50
2022/11/11 06:00:11;;;;;;;2.13;1.93;;;5.00;99.90;;;;;;5093977;28;20479;-47
2022/11/11 06:02:39;;;;;;;2.23;1.73;;;4.90;99.90;;;;;;5094526;28;20449;-47
2022/11/11 06:05:07;;;;;;;2.40;1.67;;;5.00;99.90;;;;;;5093870;28;20963;-49
2022/11/11 06:07:37;;;;;;;1.90;1.70;;;5.10;99.90;;;;;;5093533;28;20479;-49
2022/11/11 06:15:27;;;;;;;1.93;0.70;;;5.10;99.90;;;;;;5093776;28;20432;-48
2022/11/11 06:17:54;;;;;;;1.10;0.50;;;5.10;99.90;;;;;;5094048;28;21045;-47
2022/11/11 06:20:21;;;;;;;1.10;0.60;;;5.00;99.90;;;;;;5093708;28;20570;-47
2022/11/11 06:22:57;;;;;;;1.40;0.63;;;5.10;99.90;;;;;;5093697;28;20443;-48
2022/11/11 06:28:10;;;;;;;4.83;3.07;;;5.20;99.90;;;;;;5093433;28;20446;-48
2022/11/11 06:30:38;;;;;;;1.80;1.42;;;5.20;99.90;;;;;;5093408;28;20464;-47
2022/11/11 06:33:06;;;;;;;1.43;0.90;;;5.30;99.90;;;;;;5093143;28;20286;-48
2022/11/11 06:35:33;;;;;;;1.20;0.70;;;5.30;99.90;;;;;;5094089;28;20454;-47
2022/11/11 06:38:00;;;;;;;1.40;0.60;;;4.80;99.90;;;;;;5093197;28;20467;-48
2022/11/11 06:40:27;;;;;;;1.47;1.13;;;4.70;99.90;;;;;;5093200;28;20558;-49
2022/11/11 06:42:54;;;;;;;1.97;1.50;;;4.60;99.90;;;;;;5093474;28;20450;-47
2022/11/11 06:45:23;;;;;;;2.40;2.17;;;4.70;99.90;;;;;;5093416;28;20535;-44
2022/11/11 06:47:50;;;;;;;2.13;1.40;;;4.70;99.90;;;;;;5092670;28;20832;-48
2022/11/11 06:50:17;;;;;;;416.80;109.67;;;4.90;99.90;;;;;;5093103;28;20984;-49
2022/11/11 06:52:44;;;;;;;198.17;58.53;;;4.70;99.90;;;;;;5093098;28;20567;-47
2022/11/11 06:55:11;;;;;;;8.90;3.63;;;5.20;99.90;;;;;;5092937;28;20533;-47
2022/11/11 06:57:38;;;;;;;4.83;2.23;;;5.30;99.90;;;;;;5092960;28;20496;-47
2022/11/11 07:00:07;;;;;;;27.83;10.13;;;5.30;99.90;;;;;;5092586;28;21009;-50
2022/11/11 07:02:35;;;;;;;8.13;3.33;;;5.30;99.90;;;;;;5092760;28;20918;-47
2022/11/11 07:05:02;;;;;;;1.20;0.73;;;5.40;99.90;;;;;;5093046;28;20446;-47
2022/11/11 07:07:29;;;;;;;2.73;1.20;;;5.50;99.90;;;;;;5092110;28;20466;-48
2022/11/11 07:09:57;;;;;;;2.07;1.17;;;5.50;99.90;;;;;;5092565;28;20474;-48
2022/11/11 07:12:24;;;;;;;1.70;1.37;;;5.50;99.90;;;;;;5092529;28;20526;-47
2022/11/11 07:14:50;;;;;;;2.33;1.67;;;5.50;99.90;;;;;;5092299;28;20491;-48
2022/11/11 07:17:18;;;;;;;3.37;1.40;;;5.10;99.90;;;;;;5092282;28;20474;-47
2022/11/11 07:19:46;;;;;;;2.73;1.30;;;4.80;99.90;;;;;;5092828;28;20480;-49
2022/11/11 07:22:13;;;;;;;1.93;1.57;;;4.40;99.90;;;;;;5092396;28;20534;-49
2022/11/11 07:24:40;;;;;;;2.93;1.53;;;4.40;99.90;;;;;;5092499;28;20528;-47
2022/11/11 07:27:06;;;;;;;1.50;1.40;;;4.40;99.90;;;;;;5092377;28;20465;-47
2022/11/11 07:29:33;;;;;;;1.47;1.23;;;4.60;99.90;;;;;;5092418;28;20442;-49
2022/11/11 07:32:00;;;;;;;1.80;1.50;;;4.80;99.90;;;;;;5092206;28;20539;-47
2022/11/11 07:34:27;;;;;;;1.63;1.50;;;4.90;99.90;;;;;;5091808;28;20444;-47
2022/11/11 07:36:56;;;;;;;1.47;1.10;;;5.00;99.90;;;;;;5092387;28;20470;-48
2022/11/11 07:39:23;;;;;;;1.97;1.00;;;5.20;99.90;;;;;;5092323;28;20446;-48
2022/11/11 07:41:50;;;;;;;2.47;1.77;;;5.10;99.90;;;;;;5092228;28;20566;-47
2022/11/11 07:44:16;;;;;;;2.57;1.50;;;5.10;99.90;;;;;;5091954;28;20868;-47
2022/11/11 07:46:43;;;;;;;2.53;1.80;;;5.00;99.90;;;;;;5091615;28;20815;-47
2022/11/11 07:49:10;;;;;;;3.13;2.83;;;4.90;99.90;;;;;;5091965;28;20521;-47
2022/11/11 07:51:37;;;;;;;6.20;5.60;;;4.50;99.90;;;;;;5090795;28;20478;-47
2022/11/11 07:54:05;;;;;;;5.40;3.60;;;4.20;99.90;;;;;;5090348;28;20923;-48
2022/11/11 07:56:32;;;;;;;6.90;5.43;;;4.30;99.90;;;;;;5092072;28;20537;-47
2022/11/11 07:58:59;;;;;;;2.80;2.50;;;4.30;99.90;;;;;;5092008;28;20437;-49
2022/11/11 08:01:26;;;;;;;3.83;2.77;;;4.30;99.90;;;;;;5091053;28;20921;-47
2022/11/11 08:03:53;;;;;;;3.73;3.33;;;4.60;99.90;;;;;;5091677;28;21026;-48
2022/11/11 08:06:21;;;;;;;2.23;2.03;;;4.90;99.90;;;;;;5091547;28;20539;-48
2022/11/11 08:08:49;;;;;;;7.33;3.67;;;5.00;99.90;;;;;;5091741;28;21056;-47
2022/11/11 08:13:39;;;;;;;11.13;6.20;;;5.00;99.90;;;;;;5091422;28;20450;-50
2022/11/11 08:14:03;;;;;;;5.70;5.20;;;5.10;99.90;;;;;;5091317;28;20443;-48
2022/11/11 08:16:30;;;;;;;6.80;4.77;;;5.00;99.90;;;;;;5091746;28;20461;-49
2022/11/11 08:18:58;;;;;;;9.00;4.70;;;5.00;99.90;;;;;;5092911;28;20451;-47
2022/11/11 08:21:26;;;;;;;4.10;2.97;;;5.20;99.90;;;;;;5091334;28;20994;-48
2022/11/11 08:23:53;;;;;;;4.07;3.27;;;5.20;99.90;;;;;;5091183;28;20521;-48
2022/11/11 08:26:22;;;;;;;4.77;3.57;;;5.30;99.90;;;;;;5091163;28;20522;-48
2022/11/11 08:28:51;;;;;;;4.90;4.43;;;5.40;99.90;;;;;;5091391;28;20562;-47
2022/11/11 08:31:18;;;;;;;8.27;5.43;;;5.20;99.90;;;;;;5091474;28;20542;-47
2022/11/11 08:33:45;;;;;;;7.10;6.40;;;5.30;99.90;;;;;;5091106;28;20537;-47
2022/11/11 08:36:12;;;;;;;12.23;6.67;;;5.20;99.90;;;;;;5091360;28;20966;-48
2022/11/11 08:38:39;;;;;;;11.70;7.87;;;5.40;99.90;;;;;;5090882;28;20464;-47
2022/11/11 08:41:07;;;;;;;7.93;6.90;;;5.20;99.90;;;;;;5091470;28;20489;-49
2022/11/11 08:43:35;;;;;;;8.17;5.77;;;5.20;99.90;;;;;;5091034;28;21026;-49
2022/11/11 08:46:03;;;;;;;7.27;6.50;;;5.30;99.90;;;;;;5090732;28;20443;-48
2022/11/11 08:48:31;;;;;;;7.70;6.60;;;5.40;99.90;;;;;;5091256;28;20471;-48
2022/11/11 08:50:58;;;;;;;7.50;5.87;;;5.50;99.90;;;;;;5090961;28;20478;-47
2022/11/11 08:53:27;;;;;;;10.30;6.93;;;5.60;99.90;;;;;;5090829;28;21102;-47
2022/11/11 08:55:54;;;;;;;11.67;9.63;;;5.60;99.90;;;;;;5091012;28;20447;-47
2022/11/11 08:58:21;;;;;;;10.87;8.90;;;5.70;99.90;;;;;;5091407;28;20466;-49
2022/11/11 09:00:49;;;;;;;16.47;13.07;;;5.90;99.90;;;;;;5091179;28;20566;-47
2022/11/11 09:03:16;;;;;;;13.23;10.00;;;5.90;99.90;;;;;;5090889;28;20814;-47
2022/11/11 09:05:46;;;;;;;7.80;7.00;;;5.90;99.90;;;;;;5091065;28;20476;-48
2022/11/11 09:08:13;;;;;;;9.33;7.17;;;5.90;99.90;;;;;;5090921;28;20464;-47
2022/11/11 09:10:40;;;;;;;6.93;6.23;;;6.00;99.90;;;;;;5090442;28;20523;-48
2022/11/11 09:13:07;;;;;;;10.13;7.97;;;6.00;99.90;;;;;;5094904;28;20489;-48
2022/11/11 09:15:34;;;;;;;9.57;7.97;;;6.00;99.90;;;;;;5095146;28;20451;-49
2022/11/11 09:18:03;;;;;;;11.30;10.10;;;6.10;99.90;;;;;;5094613;28;20562;-47
2022/11/11 09:20:30;;;;;;;8.20;6.73;;;6.20;99.90;;;;;;5094834;28;21045;-47
2022/11/11 09:22:57;;;;;;;9.60;7.70;;;6.20;99.90;;;;;;5094508;28;20446;-48
2022/11/11 09:25:24;;;;;;;11.20;8.83;;;6.00;99.90;;;;;;5094893;28;20443;-48
2022/11/11 09:27:55;;;;;;;11.83;10.63;;;6.00;99.90;;;;;;5094432;28;20542;-48
2022/11/11 09:30:22;;;;;;;14.83;11.07;;;6.10;99.90;;;;;;5094733;28;20989;-48
2022/11/11 09:32:49;;;;;;;10.73;9.60;;;6.30;99.90;;;;;;5094785;28;20527;-48
2022/11/11 09:35:18;;;;;;;15.00;8.77;;;6.30;99.90;;;;;;5094413;28;20451;-48
2022/11/11 09:37:53;;;;;;;116.60;21.03;;;6.40;99.90;;;;;;5093338;28;20467;-48
2022/11/11 09:40:22;;;;;;;9.40;7.13;;;6.50;99.90;;;;;;5094526;28;20477;-48
2022/11/11 09:43:00;;;;;;;7.73;6.93;;;6.60;99.90;;;;;;5094326;28;20442;-48
2022/11/11 09:45:35;;;;;;;7.60;6.43;;;6.70;99.90;;;;;;5093806;28;20986;-47
2022/11/11 09:48:19;;;;;;;7.20;5.77;;;6.70;99.90;;;;;;5094573;28;20546;-48
2022/11/11 09:50:53;;;;;;;4.70;4.30;;;6.70;99.90;;;;;;5094319;28;20541;-47
2022/11/11 09:53:27;;;;;;;1353.77;382.57;;;6.70;99.90;;;;;;5093685;28;20443;-49
2022/11/11 09:56:00;;;;;;;190.93;53.07;;;6.60;99.90;;;;;;5094199;28;20443;-48
2022/11/11 09:58:30;;;;;;;90.77;30.20;;;7.60;99.90;;;;;;5094123;28;20462;-47
2022/11/11 10:01:02;;;;;;;137.80;43.17;;;8.20;99.90;;;;;;5093914;28;20475;-48
2022/11/11 10:03:30;;;;;;;76.87;23.73;;;8.40;99.90;;;;;;5093653;28;20528;-48
2022/11/11 10:06:03;;;;;;;68.83;11.97;;;8.70;99.90;;;;;;5094077;28;20438;-47
2022/11/11 10:08:34;;;;;;;16.13;6.23;;;8.40;99.90;;;;;;5094044;28;20459;-49
2022/11/11 10:11:02;;;;;;;4.10;3.70;;;8.10;99.90;;;;;;5094058;28;20462;-48
2022/11/11 10:13:31;;;;;;;6.43;3.70;;;8.00;99.90;;;;;;5093675;28;20924;-49
2022/11/11 10:16:04;;;;;;;4.63;3.40;;;8.00;99.90;;;;;;5093818;28;20527;-47
2022/11/11 10:18:55;;;;;;;50.63;19.07;;;7.80;99.90;;;;;;5093539;28;20472;-48
2022/11/11 10:21:32;;;;;;;42.87;12.90;;;8.40;99.90;;;;;;5093775;28;20488;-48
2022/11/11 10:24:04;;;;;;;310.83;60.23;;;8.30;99.90;;;;;;5092400;28;20527;-48
2022/11/11 10:26:37;;;;;;;8.50;4.40;;;8.80;99.90;;;;;;5093746;28;20531;-48
2022/11/11 10:29:10;;;;;;;4.80;3.10;;;8.70;99.90;;;;;;5093414;28;21016;-50
2022/11/11 10:31:38;;;;;;;6.33;4.07;;;8.50;99.90;;;;;;5093885;28;20189;-47
2022/11/11 10:34:10;;;;;;;3.67;2.97;;;8.40;99.90;;;;;;5093075;28;20547;-49
2022/11/11 10:36:43;;;;;;;3.63;3.17;;;8.30;99.90;;;;;;5093231;28;20447;-49
2022/11/11 10:39:15;;;;;;;56.50;8.17;;;8.20;99.90;;;;;;5093157;28;20532;-47
2022/11/11 10:41:46;;;;;;;3.93;3.60;;;8.20;99.90;;;;;;5093309;28;20475;-48
2022/11/11 10:44:21;;;;;;;6.30;3.30;;;8.10;99.90;;;;;;5093221;28;20531;-48
2022/11/11 10:46:56;;;;;;;4.83;4.00;;;8.20;99.90;;;;;;5092960;28;20445;-48
2022/11/11 10:49:26;;;;;;;8.83;3.50;;;8.30;99.90;;;;;;5093092;28;20951;-49
2022/11/11 10:52:01;;;;;;;21.40;7.00;;;8.30;99.90;;;;;;5093155;28;20522;-48
2022/11/11 10:54:35;;;;;;;8.80;4.67;;;8.50;99.90;;;;;;5092823;28;20871;-49
2022/11/11 10:57:09;;;;;;;17.03;7.50;;;8.50;99.90;;;;;;5092741;28;20487;-48
2022/11/11 10:59:44;;;;;;;5.80;4.03;;;8.80;99.90;;;;;;5093149;28;20538;-48
2022/11/11 11:02:21;;;;;;;6.00;3.70;;;8.70;99.90;;;;;;5093058;28;20554;-49
2022/11/11 11:04:52;;;;;;;6.87;3.00;;;8.60;99.90;;;;;;5092530;28;20466;-48
2022/11/11 11:07:26;;;;;;;4.80;3.13;;;8.50;99.90;;;;;;5092722;28;20464;-48
2022/11/11 11:09:57;;;;;;;3.00;2.60;;;8.60;99.90;;;;;;5092833;28;20527;-48
2022/11/11 11:12:32;;;;;;;3.23;2.87;;;8.60;99.90;;;;;;5092771;28;20440;-48
2022/11/11 11:15:04;;;;;;;3.00;2.60;;;8.70;99.90;;;;;;5092666;28;20534;-46
2022/11/11 11:17:38;;;;;;;2.97;2.40;;;8.80;99.90;;;;;;5092467;28;20546;-48
2022/11/11 11:20:12;;;;;;;3.27;2.30;;;8.90;99.90;;;;;;5092344;28;20452;-48
2022/11/11 11:22:48;;;;;;;2.47;2.27;;;8.90;99.90;;;;;;5092638;28;20447;-48
2022/11/11 11:25:17;;;;;;;2.50;1.80;;;8.90;99.90;;;;;;5092274;28;20443;-48
2022/11/11 11:27:44;;;;;;;3.20;1.67;;;8.90;99.90;;;;;;5092476;28;20554;-49
2022/11/11 11:30:14;;;;;;;4.27;2.73;;;8.90;99.90;;;;;;5092210;28;20440;-48
2022/11/11 11:32:43;;;;;;;52.63;9.60;;;9.00;99.90;;;;;;5092175;28;20467;-48
2022/11/11 11:35:10;;;;;;;171.20;24.57;;;9.10;99.90;;;;;;5091420;28;20479;-48
2022/11/11 11:37:51;;;;;;;71.43;14.73;;;9.10;99.90;;;;;;5092209;28;20492;-48
2022/11/11 11:40:18;;;;;;;4.67;2.43;;;9.20;99.90;;;;;;5087462;28;20534;-48
2022/11/11 11:42:45;;;;;;;2.60;1.90;;;9.10;99.90;;;;;;5082455;28;20525;-50
2022/11/11 11:45:19;;;;;;;5.03;2.13;;;9.10;99.90;;;;;;5085974;28;20501;-47
2022/11/11 11:48:11;;;;;;;1.87;1.70;;;9.10;99.90;;;;;;5091827;28;21054;-48
2022/11/11 11:50:46;;;;;;;1.57;1.10;;;9.10;99.90;;;;;;5092044;28;20464;-48
2022/11/11 11:53:29;;;;;;;2.90;1.50;;;9.00;99.90;;;;;;5091984;28;20469;-48
2022/11/11 11:56:06;;;;;;;7.30;3.00;;;9.00;99.90;;;;;;5091739;28;20444;-49
2022/11/11 11:58:44;;;;;;;1.77;1.47;;;9.00;99.90;;;;;;5091911;28;20551;-48
2022/11/11 12:01:14;;;;;;;10.20;2.40;;;9.00;99.90;;;;;;5091772;28;20471;-48
2022/11/11 12:04:05;;;;;;;4.10;2.33;;;9.10;99.90;;;;;;5091985;28;20574;-48
2022/11/11 12:06:40;;;;;;;2.60;2.40;;;9.10;99.90;;;;;;5091852;28;20531;-48
2022/11/11 12:09:17;;;;;;;5.90;3.10;;;9.20;99.90;;;;;;5091987;28;20435;-48
2022/11/11 12:11:54;;;;;;;4.50;2.80;;;9.30;99.90;;;;;;5091707;28;20606;-48
2022/11/11 12:14:39;;;;;;;5.90;2.90;;;9.40;99.90;;;;;;5091215;28;20515;-50
2022/11/11 12:17:16;;;;;;;5.40;2.83;;;9.40;99.90;;;;;;5091693;28;20554;-48
2022/11/11 12:19:56;;;;;;;4.90;2.20;;;9.50;99.90;;;;;;5091741;28;20437;-50
2022/11/11 12:22:32;;;;;;;4.07;2.20;;;9.50;99.90;;;;;;5091502;28;21017;-48
2022/11/11 12:25:12;;;;;;;4.07;2.37;;;9.50;99.90;;;;;;5091528;28;20490;-49
2022/11/11 12:27:52;;;;;;;2.60;1.70;;;9.50;99.90;;;;;;5091150;28;20581;-48
2022/11/11 12:30:20;;;;;;;3.30;2.70;;;9.60;99.90;;;;;;5091226;28;20468;-48
2022/11/11 12:33:13;;;;;;;6.73;2.63;;;9.60;99.90;;;;;;5091188;28;20437;-48
2022/11/11 12:35:56;;;;;;;2.30;2.10;;;9.60;99.90;;;;;;5091536;28;20535;-47
2022/11/11 12:38:49;;;;;;;3.87;2.37;;;9.60;99.90;;;;;;5091414;28;20542;-48
2022/11/11 12:41:27;;;;;;;3.13;2.10;;;9.70;99.90;;;;;;5091176;28;20472;-48
2022/11/11 12:44:03;;;;;;;3.97;2.53;;;9.70;99.90;;;;;;5091064;28;20440;-48
2022/11/11 12:46:39;;;;;;;67.47;10.90;;;9.80;99.90;;;;;;5092401;28;20547;-48
2022/11/11 12:49:18;;;;;;;14.53;8.93;;;9.70;99.90;;;;;;5095771;28;20526;-48
2022/11/11 12:51:57;;;;;;;19.50;8.87;;;9.70;99.90;;;;;;5095302;28;20437;-48
2022/11/11 12:54:34;;;;;;;5.13;3.00;;;9.70;99.90;;;;;;5095220;28;20589;-48
2022/11/11 12:57:10;;;;;;;5.37;3.47;;;9.80;99.90;;;;;;5095449;28;20554;-49
2022/11/11 12:59:53;;;;;;;5.20;2.17;;;9.80;99.90;;;;;;5095182;28;20979;-48
2022/11/11 13:02:34;;;;;;;3.00;2.60;;;9.70;99.90;;;;;;5095455;28;20471;-48
2022/11/11 13:05:10;;;;;;;3.30;2.80;;;9.70;99.90;;;;;;5095217;28;20517;-48
2022/11/11 13:08:02;;;;;;;16.07;5.00;;;9.60;99.90;;;;;;5095074;28;20561;-48
2022/11/11 13:10:40;;;;;;;4.17;2.47;;;9.60;99.90;;;;;;5095073;28;20963;-48
2022/11/11 13:13:27;;;;;;;2.50;1.40;;;9.60;99.90;;;;;;5094914;28;20810;-48
2022/11/11 13:15:56;;;;;;;3.17;1.50;;;9.50;99.90;;;;;;5095105;28;21113;-51
2022/11/11 13:18:26;;;;;;;2.10;1.70;;;9.60;99.90;;;;;;5094548;28;20499;-48
2022/11/11 13:21:00;;;;;;;3.70;2.73;;;9.60;99.90;;;;;;5095292;28;20443;-48
2022/11/11 13:23:27;;;;;;;4.10;1.77;;;9.60;99.90;;;;;;5094679;28;20486;-47
2022/11/11 13:26:00;;;;;;;50.50;7.50;;;9.50;99.90;;;;;;5095012;28;20522;-48
2022/11/11 13:28:32;;;;;;;33.20;7.50;;;9.50;99.90;;;;;;5094538;28;20900;-50
2022/11/11 13:31:14;;;;;;;9.10;4.00;;;9.60;99.90;;;;;;5094698;28;20560;-50
2022/11/11 13:33:44;;;;;;;76.50;14.67;;;9.70;99.90;;;;;;5094837;28;20532;-48
2022/11/11 13:36:14;;;;;;;82.37;15.33;;;9.70;99.90;;;;;;5094759;28;20472;-48
2022/11/11 13:38:46;;;;;;;133.83;21.87;;;9.70;99.90;;;;;;5094514;28;20543;-48
2022/11/11 13:41:20;;;;;;;68.77;16.73;;;9.70;99.90;;;;;;5094359;28;20551;-48
2022/11/11 13:43:51;;;;;;;28.13;8.27;;;9.60;99.90;;;;;;5094563;28;20442;-48
2022/11/11 13:46:34;;;;;;;11.93;6.60;;;9.60;99.90;;;;;;5094264;28;20442;-47
2022/11/11 13:49:02;;;;;;;15.20;5.60;;;9.60;99.90;;;;;;5094427;28;20442;-49
2022/11/11 13:51:36;;;;;;;14.00;5.70;;;9.70;99.90;;;;;;5094135;28;20435;-49
2022/11/11 13:54:06;;;;;;;13.57;5.67;;;9.70;99.90;;;;;;5094325;28;20534;-48
2022/11/11 13:56:38;;;;;;;8.93;5.00;;;9.60;99.90;;;;;;5094284;28;20530;-50
2022/11/11 13:59:08;;;;;;;13.70;4.20;;;9.60;99.90;;;;;;5093363;28;20749;-46
2022/11/11 14:01:35;;;;;;;8.10;4.03;;;9.60;99.90;;;;;;5093977;28;20566;-49
2022/11/11 14:04:05;;;;;;;8.60;4.70;;;9.60;99.90;;;;;;5093786;28;20467;-47
2022/11/11 14:06:51;;;;;;;4.33;3.77;;;9.50;99.90;;;;;;5093860;28;20944;-48
2022/11/11 14:09:55;;;;;;;6.10;4.20;;;9.40;99.90;;;;;;5094135;28;20436;-50
2022/11/11 14:12:35;;;;;;;4.37;3.10;;;9.40;99.90;;;;;;5093902;28;20874;-48
2022/11/11 14:15:06;;;;;;;4.43;3.70;;;9.40;99.90;;;;;;5093876;28;20443;-48
2022/11/11 14:17:35;;;;;;;4.53;3.60;;;9.30;99.90;;;;;;5095198;28;20552;-48
2022/11/11 14:20:36;;;;;;;5.87;3.77;;;9.30;99.90;;;;;;5093781;28;20448;-48
2022/11/11 14:23:35;;;;;;;4.07;3.67;;;9.20;99.90;;;;;;5093410;28;20487;-48
2022/11/11 14:26:26;;;;;;;4.70;3.50;;;9.10;99.90;;;;;;5059405;28;20531;-49
2022/11/11 14:28:57;;;;;;;4.93;4.10;;;9.00;99.90;;;;;;5092831;28;20538;-48
2022/11/11 14:31:51;;;;;;;14.13;6.17;;;9.10;99.90;;;;;;5093733;28;20431;-48
2022/11/11 14:34:27;;;;;;;6.63;3.70;;;9.10;99.90;;;;;;5093887;28;20774;-48
2022/11/11 14:37:02;;;;;;;3.63;3.20;;;9.10;99.90;;;;;;5093706;28;20457;-48